sensor_id;sensor_type;location;lat;lon;timestamp;P1;durP1;ratioP1;P2;durP2;ratioP2
1308;SDS011;647;48.840;9.314;2023-04-15T00:01:52;66.78;;;9.70;;
1308;SDS011;647;48.840;9.314;2023-04-15T00:04:20;66.60;;;8.32;;
1308;SDS011;647;48.840;9.314;2023-04-15T00:06:51;64.57;;;8.98;;
1308;SDS011;647;48.840;9.314;2023-04-15T00:09:18;68.10;;;8.30;;
1308;SDS011;647;48.840;9.314;2023-04-15T00:11:45;65.60;;;9.20;;
1308;SDS011;647;48.840;9.314;2023-04-15T00:14:12;67.18;;;9.23;;
1308;SDS011;647;48.840;9.314;2023-04-15T00:16:40;70.07;;;8.45;;
1308;SDS011;647;48.840;9.314;2023-04-15T00:19:07;65.70;;;9.23;;
1308;SDS011;647;48.840;9.314;2023-04-15T00:21:36;68.15;;;8.23;;
1308;SDS011;647;48.840;9.314;2023-04-15T00:24:03;71.47;;;9.40;;
1308;SDS011;647;48.840;9.314;2023-04-15T00:26:30;66.10;;;8.30;;
1308;SDS011;647;48.840;9.314;2023-04-15T00:28:57;68.15;;;9.02;;
1308;SDS011;647;48.840;9.314;2023-04-15T00:31:25;67.90;;;9.45;;
1308;SDS011;647;48.840;9.314;2023-04-15T00:33:52;68.63;;;9.05;;
1308;SDS011;647;48.840;9.314;2023-04-15T00:36:19;64.10;;;8.43;;
1308;SDS011;647;48.840;9.314;2023-04-15T00:38:48;63.42;;;8.30;;
1308;SDS011;647;48.840;9.314;2023-04-15T00:41:15;65.32;;;9.07;;
1308;SDS011;647;48.840;9.314;2023-04-15T00:43:43;68.68;;;9.45;;
1308;SDS011;647;48.840;9.314;2023-04-15T00:46:11;64.15;;;8.27;;
1308;SDS011;647;48.840;9.314;2023-04-15T00:48:38;69.57;;;9.45;;
1308;SDS011;647;48.840;9.314;2023-04-15T00:51:06;68.38;;;8.77;;
1308;SDS011;647;48.840;9.314;2023-04-15T00:53:33;66.10;;;9.65;;
1308;SDS011;647;48.840;9.314;2023-04-15T00:56:02;63.45;;;8.20;;
1308;SDS011;647;48.840;9.314;2023-04-15T00:58:29;65.85;;;8.18;;
1308;SDS011;647;48.840;9.314;2023-04-15T01:00:56;67.82;;;8.23;;
1308;SDS011;647;48.840;9.314;2023-04-15T01:03:23;67.03;;;8.25;;
1308;SDS011;647;48.840;9.314;2023-04-15T01:05:50;66.85;;;8.60;;
1308;SDS011;647;48.840;9.314;2023-04-15T01:08:22;63.83;;;8.85;;
1308;SDS011;647;48.840;9.314;2023-04-15T01:10:49;65.45;;;9.13;;
1308;SDS011;647;48.840;9.314;2023-04-15T01:13:18;64.57;;;7.63;;
1308;SDS011;647;48.840;9.314;2023-04-15T01:15:46;62.00;;;6.93;;
1308;SDS011;647;48.840;9.314;2023-04-15T01:18:13;64.30;;;8.70;;
1308;SDS011;647;48.840;9.314;2023-04-15T01:20:40;66.72;;;9.30;;
1308;SDS011;647;48.840;9.314;2023-04-15T01:23:07;63.60;;;7.53;;
1308;SDS011;647;48.840;9.314;2023-04-15T01:25:36;65.70;;;8.45;;
1308;SDS011;647;48.840;9.314;2023-04-15T01:28:04;71.15;;;9.55;;
1308;SDS011;647;48.840;9.314;2023-04-15T01:30:32;70.03;;;9.40;;
1308;SDS011;647;48.840;9.314;2023-04-15T01:32:59;68.07;;;8.77;;
1308;SDS011;647;48.840;9.314;2023-04-15T01:35:27;64.38;;;8.32;;
1308;SDS011;647;48.840;9.314;2023-04-15T01:37:54;63.80;;;7.65;;
1308;SDS011;647;48.840;9.314;2023-04-15T01:40:25;63.50;;;8.18;;
1308;SDS011;647;48.840;9.314;2023-04-15T01:42:53;65.55;;;8.63;;
1308;SDS011;647;48.840;9.314;2023-04-15T01:45:20;67.05;;;9.20;;
1308;SDS011;647;48.840;9.314;2023-04-15T01:47:47;66.72;;;9.10;;
1308;SDS011;647;48.840;9.314;2023-04-15T01:50:14;62.38;;;7.55;;
1308;SDS011;647;48.840;9.314;2023-04-15T01:52:42;64.88;;;9.77;;
1308;SDS011;647;48.840;9.314;2023-04-15T01:55:09;63.58;;;8.15;;
1308;SDS011;647;48.840;9.314;2023-04-15T01:57:36;64.78;;;8.48;;
1308;SDS011;647;48.840;9.314;2023-04-15T02:00:05;67.03;;;8.88;;
1308;SDS011;647;48.840;9.314;2023-04-15T02:02:32;64.68;;;8.00;;
1308;SDS011;647;48.840;9.314;2023-04-15T02:05:00;64.97;;;8.35;;
1308;SDS011;647;48.840;9.314;2023-04-15T02:07:28;64.07;;;8.00;;
1308;SDS011;647;48.840;9.314;2023-04-15T02:09:56;68.88;;;10.48;;
1308;SDS011;647;48.840;9.314;2023-04-15T02:12:23;71.07;;;10.18;;
1308;SDS011;647;48.840;9.314;2023-04-15T02:14:51;64.80;;;8.48;;
1308;SDS011;647;48.840;9.314;2023-04-15T02:17:19;68.05;;;8.52;;
1308;SDS011;647;48.840;9.314;2023-04-15T02:19:46;72.13;;;12.50;;
1308;SDS011;647;48.840;9.314;2023-04-15T02:22:13;68.95;;;10.40;;
1308;SDS011;647;48.840;9.314;2023-04-15T02:24:42;67.25;;;10.10;;
1308;SDS011;647;48.840;9.314;2023-04-15T02:27:10;64.28;;;8.65;;
1308;SDS011;647;48.840;9.314;2023-04-15T02:29:37;64.18;;;8.43;;
1308;SDS011;647;48.840;9.314;2023-04-15T02:47:34;65.65;;;8.18;;
1308;SDS011;647;48.840;9.314;2023-04-15T02:50:02;64.78;;;9.43;;
1308;SDS011;647;48.840;9.314;2023-04-15T02:52:29;64.10;;;8.80;;
1308;SDS011;647;48.840;9.314;2023-04-15T02:54:56;66.82;;;8.45;;
1308;SDS011;647;48.840;9.314;2023-04-15T02:57:24;64.50;;;8.20;;
1308;SDS011;647;48.840;9.314;2023-04-15T02:59:52;69.15;;;9.68;;
1308;SDS011;647;48.840;9.314;2023-04-15T03:02:19;66.88;;;9.20;;
1308;SDS011;647;48.840;9.314;2023-04-15T03:04:48;66.60;;;9.48;;
1308;SDS011;647;48.840;9.314;2023-04-15T03:07:16;65.53;;;8.63;;
1308;SDS011;647;48.840;9.314;2023-04-15T03:09:43;65.20;;;7.80;;
1308;SDS011;647;48.840;9.314;2023-04-15T03:12:11;67.05;;;9.15;;
1308;SDS011;647;48.840;9.314;2023-04-15T03:14:38;69.07;;;9.98;;
1308;SDS011;647;48.840;9.314;2023-04-15T03:17:06;63.53;;;9.38;;
1308;SDS011;647;48.840;9.314;2023-04-15T03:19:33;65.88;;;8.98;;
1308;SDS011;647;48.840;9.314;2023-04-15T03:22:01;64.13;;;8.63;;
1308;SDS011;647;48.840;9.314;2023-04-15T03:24:28;65.72;;;8.82;;
1308;SDS011;647;48.840;9.314;2023-04-15T03:26:55;64.50;;;8.07;;
1308;SDS011;647;48.840;9.314;2023-04-15T03:29:23;66.53;;;9.75;;
1308;SDS011;647;48.840;9.314;2023-04-15T03:31:50;70.97;;;11.57;;
1308;SDS011;647;48.840;9.314;2023-04-15T03:34:18;69.10;;;11.40;;
1308;SDS011;647;48.840;9.314;2023-04-15T03:36:45;72.80;;;12.00;;
1308;SDS011;647;48.840;9.314;2023-04-15T03:39:14;66.97;;;10.75;;
1308;SDS011;647;48.840;9.314;2023-04-15T03:41:41;67.07;;;10.05;;
1308;SDS011;647;48.840;9.314;2023-04-15T03:44:08;67.75;;;9.70;;
1308;SDS011;647;48.840;9.314;2023-04-15T03:46:35;69.53;;;9.90;;
1308;SDS011;647;48.840;9.314;2023-04-15T03:49:02;64.07;;;8.82;;
1308;SDS011;647;48.840;9.314;2023-04-15T03:51:29;67.65;;;10.20;;
1308;SDS011;647;48.840;9.314;2023-04-15T03:53:56;70.00;;;11.00;;
1308;SDS011;647;48.840;9.314;2023-04-15T03:56:25;72.40;;;10.50;;
1308;SDS011;647;48.840;9.314;2023-04-15T03:58:52;71.60;;;10.00;;
1308;SDS011;647;48.840;9.314;2023-04-15T04:01:19;71.10;;;10.80;;
1308;SDS011;647;48.840;9.314;2023-04-15T04:03:46;67.22;;;10.48;;
1308;SDS011;647;48.840;9.314;2023-04-15T04:06:13;68.50;;;10.63;;
1308;SDS011;647;48.840;9.314;2023-04-15T04:08:41;65.72;;;10.18;;
1308;SDS011;647;48.840;9.314;2023-04-15T04:11:08;67.57;;;10.90;;
1308;SDS011;647;48.840;9.314;2023-04-15T04:13:37;66.82;;;9.52;;
1308;SDS011;647;48.840;9.314;2023-04-15T04:16:04;66.40;;;9.05;;
1308;SDS011;647;48.840;9.314;2023-04-15T04:18:31;65.13;;;9.52;;
1308;SDS011;647;48.840;9.314;2023-04-15T04:20:59;67.60;;;10.20;;
1308;SDS011;647;48.840;9.314;2023-04-15T04:23:26;66.03;;;9.88;;
1308;SDS011;647;48.840;9.314;2023-04-15T04:25:53;66.85;;;8.38;;
1308;SDS011;647;48.840;9.314;2023-04-15T04:28:20;66.95;;;8.77;;
1308;SDS011;647;48.840;9.314;2023-04-15T04:30:49;66.45;;;8.77;;
1308;SDS011;647;48.840;9.314;2023-04-15T04:33:16;69.07;;;8.70;;
1308;SDS011;647;48.840;9.314;2023-04-15T04:35:43;64.97;;;7.70;;
1308;SDS011;647;48.840;9.314;2023-04-15T04:38:10;62.95;;;8.43;;
1308;SDS011;647;48.840;9.314;2023-04-15T04:40:37;64.15;;;8.35;;
1308;SDS011;647;48.840;9.314;2023-04-15T04:43:05;63.08;;;8.23;;
1308;SDS011;647;48.840;9.314;2023-04-15T04:45:32;65.18;;;8.65;;
1308;SDS011;647;48.840;9.314;2023-04-15T04:48:00;66.65;;;9.07;;
1308;SDS011;647;48.840;9.314;2023-04-15T04:50:30;65.90;;;9.65;;
1308;SDS011;647;48.840;9.314;2023-04-15T04:52:58;65.07;;;8.40;;
1308;SDS011;647;48.840;9.314;2023-04-15T04:55:25;65.00;;;8.90;;
1308;SDS011;647;48.840;9.314;2023-04-15T04:57:52;63.72;;;7.50;;
1308;SDS011;647;48.840;9.314;2023-04-15T05:00:19;65.43;;;8.32;;
1308;SDS011;647;48.840;9.314;2023-04-15T05:02:46;66.03;;;8.95;;
1308;SDS011;647;48.840;9.314;2023-04-15T05:05:15;63.90;;;8.60;;
1308;SDS011;647;48.840;9.314;2023-04-15T05:07:42;64.32;;;8.02;;
1308;SDS011;647;48.840;9.314;2023-04-15T05:10:09;64.05;;;8.45;;
1308;SDS011;647;48.840;9.314;2023-04-15T05:12:37;69.20;;;7.90;;
1308;SDS011;647;48.840;9.314;2023-04-15T05:15:04;65.55;;;8.80;;
1308;SDS011;647;48.840;9.314;2023-04-15T05:17:32;64.18;;;8.15;;
1308;SDS011;647;48.840;9.314;2023-04-15T05:19:59;65.07;;;7.65;;
1308;SDS011;647;48.840;9.314;2023-04-15T05:22:28;62.90;;;8.02;;
1308;SDS011;647;48.840;9.314;2023-04-15T05:24:55;64.25;;;8.75;;
1308;SDS011;647;48.840;9.314;2023-04-15T05:27:22;63.70;;;8.05;;
1308;SDS011;647;48.840;9.314;2023-04-15T05:29:49;64.80;;;7.90;;
1308;SDS011;647;48.840;9.314;2023-04-15T05:32:16;64.55;;;8.10;;
1308;SDS011;647;48.840;9.314;2023-04-15T05:34:43;67.97;;;9.05;;
1308;SDS011;647;48.840;9.314;2023-04-15T05:37:11;65.15;;;8.50;;
1308;SDS011;647;48.840;9.314;2023-04-15T05:39:39;64.47;;;8.75;;
1308;SDS011;647;48.840;9.314;2023-04-15T05:42:07;64.50;;;7.85;;
1308;SDS011;647;48.840;9.314;2023-04-15T05:44:34;68.57;;;9.00;;
1308;SDS011;647;48.840;9.314;2023-04-15T05:47:01;66.75;;;8.25;;
1308;SDS011;647;48.840;9.314;2023-04-15T05:49:29;65.38;;;8.80;;
1308;SDS011;647;48.840;9.314;2023-04-15T05:51:57;74.13;;;9.45;;
1308;SDS011;647;48.840;9.314;2023-04-15T05:54:24;66.65;;;9.10;;
1308;SDS011;647;48.840;9.314;2023-04-15T05:56:53;63.25;;;9.63;;
1308;SDS011;647;48.840;9.314;2023-04-15T05:59:20;64.05;;;9.25;;
1308;SDS011;647;48.840;9.314;2023-04-15T06:01:47;71.10;;;9.38;;
1308;SDS011;647;48.840;9.314;2023-04-15T06:04:16;65.10;;;9.60;;
1308;SDS011;647;48.840;9.314;2023-04-15T06:06:43;71.03;;;9.10;;
1308;SDS011;647;48.840;9.314;2023-04-15T06:09:10;67.65;;;10.25;;
1308;SDS011;647;48.840;9.314;2023-04-15T06:11:37;64.47;;;8.35;;
1308;SDS011;647;48.840;9.314;2023-04-15T06:14:06;66.32;;;9.27;;
1308;SDS011;647;48.840;9.314;2023-04-15T06:16:33;67.47;;;8.88;;
1308;SDS011;647;48.840;9.314;2023-04-15T06:19:01;65.25;;;9.63;;
1308;SDS011;647;48.840;9.314;2023-04-15T06:21:28;64.97;;;9.80;;
1308;SDS011;647;48.840;9.314;2023-04-15T06:23:57;65.85;;;9.40;;
1308;SDS011;647;48.840;9.314;2023-04-15T06:26:25;63.78;;;8.85;;
1308;SDS011;647;48.840;9.314;2023-04-15T06:28:52;62.65;;;7.80;;
1308;SDS011;647;48.840;9.314;2023-04-15T06:31:21;69.50;;;7.72;;
1308;SDS011;647;48.840;9.314;2023-04-15T06:33:49;69.50;;;8.77;;
1308;SDS011;647;48.840;9.314;2023-04-15T06:36:16;62.80;;;7.68;;
1308;SDS011;647;48.840;9.314;2023-04-15T06:38:43;62.97;;;7.97;;
1308;SDS011;647;48.840;9.314;2023-04-15T06:41:10;65.97;;;8.02;;
1308;SDS011;647;48.840;9.314;2023-04-15T06:43:38;64.28;;;7.80;;
1308;SDS011;647;48.840;9.314;2023-04-15T06:46:05;62.55;;;7.38;;
1308;SDS011;647;48.840;9.314;2023-04-15T06:48:33;61.25;;;6.78;;
1308;SDS011;647;48.840;9.314;2023-04-15T06:51:01;62.55;;;7.43;;
1308;SDS011;647;48.840;9.314;2023-04-15T06:53:28;61.90;;;6.85;;
1308;SDS011;647;48.840;9.314;2023-04-15T06:55:55;69.32;;;7.55;;
1308;SDS011;647;48.840;9.314;2023-04-15T06:58:22;64.00;;;7.30;;
1308;SDS011;647;48.840;9.314;2023-04-15T07:00:49;60.53;;;6.10;;
1308;SDS011;647;48.840;9.314;2023-04-15T07:03:16;63.83;;;6.88;;
1308;SDS011;647;48.840;9.314;2023-04-15T07:05:45;61.55;;;6.72;;
1308;SDS011;647;48.840;9.314;2023-04-15T07:08:12;62.65;;;6.93;;
1308;SDS011;647;48.840;9.314;2023-04-15T07:10:40;63.08;;;6.95;;
1308;SDS011;647;48.840;9.314;2023-04-15T07:13:07;61.17;;;7.28;;
1308;SDS011;647;48.840;9.314;2023-04-15T07:15:34;67.13;;;6.05;;
1308;SDS011;647;48.840;9.314;2023-04-15T07:18:01;63.25;;;6.85;;
1308;SDS011;647;48.840;9.314;2023-04-15T07:20:28;62.90;;;7.32;;
1308;SDS011;647;48.840;9.314;2023-04-15T07:22:57;60.85;;;6.18;;
1308;SDS011;647;48.840;9.314;2023-04-15T07:25:24;63.55;;;7.05;;
1308;SDS011;647;48.840;9.314;2023-04-15T07:27:51;62.22;;;6.45;;
1308;SDS011;647;48.840;9.314;2023-04-15T07:30:18;64.57;;;6.35;;
1308;SDS011;647;48.840;9.314;2023-04-15T07:32:45;61.97;;;6.10;;
1308;SDS011;647;48.840;9.314;2023-04-15T07:35:12;63.78;;;6.47;;
1308;SDS011;647;48.840;9.314;2023-04-15T07:37:40;65.37;;;8.07;;
1308;SDS011;647;48.840;9.314;2023-04-15T07:40:10;62.80;;;6.70;;
1308;SDS011;647;48.840;9.314;2023-04-15T07:42:38;62.40;;;6.20;;
1308;SDS011;647;48.840;9.314;2023-04-15T07:45:06;62.40;;;6.30;;
1308;SDS011;647;48.840;9.314;2023-04-15T07:47:34;63.43;;;6.63;;
1308;SDS011;647;48.840;9.314;2023-04-15T07:50:01;66.77;;;7.47;;
1308;SDS011;647;48.840;9.314;2023-04-15T07:52:28;63.47;;;6.67;;
1308;SDS011;647;48.840;9.314;2023-04-15T07:54:55;65.10;;;6.87;;
1308;SDS011;647;48.840;9.314;2023-04-15T07:57:23;70.00;;;6.37;;
1308;SDS011;647;48.840;9.314;2023-04-15T07:59:50;64.50;;;6.70;;
1308;SDS011;647;48.840;9.314;2023-04-15T08:02:18;89.90;;;9.40;;
1308;SDS011;647;48.840;9.314;2023-04-15T08:04:45;65.83;;;6.53;;
1308;SDS011;647;48.840;9.314;2023-04-15T08:07:12;63.60;;;6.93;;
1308;SDS011;647;48.840;9.314;2023-04-15T08:09:40;64.27;;;6.83;;
1308;SDS011;647;48.840;9.314;2023-04-15T08:12:07;68.40;;;6.80;;
1308;SDS011;647;48.840;9.314;2023-04-15T08:14:38;63.27;;;7.10;;
1308;SDS011;647;48.840;9.314;2023-04-15T08:17:05;66.67;;;6.47;;
1308;SDS011;647;48.840;9.314;2023-04-15T08:19:33;64.50;;;6.40;;
1308;SDS011;647;48.840;9.314;2023-04-15T08:22:00;60.83;;;5.93;;
1308;SDS011;647;48.840;9.314;2023-04-15T08:24:27;62.17;;;6.70;;
1308;SDS011;647;48.840;9.314;2023-04-15T08:26:55;62.80;;;6.47;;
1308;SDS011;647;48.840;9.314;2023-04-15T08:29:23;63.97;;;7.17;;
1308;SDS011;647;48.840;9.314;2023-04-15T08:31:52;67.00;;;6.70;;
1308;SDS011;647;48.840;9.314;2023-04-15T08:34:19;62.90;;;6.00;;
1308;SDS011;647;48.840;9.314;2023-04-15T08:36:46;62.53;;;6.77;;
1308;SDS011;647;48.840;9.314;2023-04-15T08:39:14;61.57;;;6.00;;
1308;SDS011;647;48.840;9.314;2023-04-15T08:41:44;65.10;;;6.10;;
1308;SDS011;647;48.840;9.314;2023-04-15T08:44:11;60.93;;;5.80;;
1308;SDS011;647;48.840;9.314;2023-04-15T08:46:39;62.67;;;5.90;;
1308;SDS011;647;48.840;9.314;2023-04-15T08:49:10;62.80;;;6.30;;
1308;SDS011;647;48.840;9.314;2023-04-15T08:51:37;61.80;;;5.90;;
1308;SDS011;647;48.840;9.314;2023-04-15T08:54:04;62.87;;;6.03;;
1308;SDS011;647;48.840;9.314;2023-04-15T08:56:32;63.07;;;6.47;;
1308;SDS011;647;48.840;9.314;2023-04-15T08:59:01;63.00;;;6.43;;
1308;SDS011;647;48.840;9.314;2023-04-15T09:01:29;66.00;;;6.17;;
1308;SDS011;647;48.840;9.314;2023-04-15T09:03:57;63.77;;;6.27;;
1308;SDS011;647;48.840;9.314;2023-04-15T09:06:26;59.97;;;5.73;;
1308;SDS011;647;48.840;9.314;2023-04-15T09:08:53;62.57;;;6.57;;
1308;SDS011;647;48.840;9.314;2023-04-15T09:11:21;63.93;;;6.17;;
1308;SDS011;647;48.840;9.314;2023-04-15T09:13:48;62.00;;;5.57;;
1308;SDS011;647;48.840;9.314;2023-04-15T09:16:16;61.57;;;5.93;;
1308;SDS011;647;48.840;9.314;2023-04-15T09:18:43;64.17;;;5.60;;
1308;SDS011;647;48.840;9.314;2023-04-15T09:21:11;63.90;;;6.07;;
1308;SDS011;647;48.840;9.314;2023-04-15T09:23:41;63.60;;;6.30;;
1308;SDS011;647;48.840;9.314;2023-04-15T09:26:28;61.67;;;5.90;;
1308;SDS011;647;48.840;9.314;2023-04-15T09:28:58;64.03;;;5.63;;
1308;SDS011;647;48.840;9.314;2023-04-15T09:31:28;59.37;;;4.60;;
1308;SDS011;647;48.840;9.314;2023-04-15T09:33:55;61.83;;;5.73;;
1308;SDS011;647;48.840;9.314;2023-04-15T09:36:23;61.23;;;6.40;;
1308;SDS011;647;48.840;9.314;2023-04-15T09:38:55;60.20;;;5.43;;
1308;SDS011;647;48.840;9.314;2023-04-15T09:41:22;62.40;;;5.80;;
1308;SDS011;647;48.840;9.314;2023-04-15T09:43:50;60.60;;;5.57;;
1308;SDS011;647;48.840;9.314;2023-04-15T09:46:17;60.63;;;5.57;;
1308;SDS011;647;48.840;9.314;2023-04-15T09:48:44;59.53;;;5.10;;
1308;SDS011;647;48.840;9.314;2023-04-15T09:51:11;61.47;;;5.53;;
1308;SDS011;647;48.840;9.314;2023-04-15T09:53:39;62.67;;;6.53;;
1308;SDS011;647;48.840;9.314;2023-04-15T09:56:08;62.80;;;5.83;;
1308;SDS011;647;48.840;9.314;2023-04-15T09:58:35;65.90;;;6.37;;
1308;SDS011;647;48.840;9.314;2023-04-15T10:01:03;60.10;;;6.20;;
1308;SDS011;647;48.840;9.314;2023-04-15T10:03:32;60.87;;;5.73;;
1308;SDS011;647;48.840;9.314;2023-04-15T10:06:00;61.80;;;6.50;;
1308;SDS011;647;48.840;9.314;2023-04-15T10:08:28;61.57;;;5.70;;
1308;SDS011;647;48.840;9.314;2023-04-15T10:10:56;62.70;;;5.90;;
1308;SDS011;647;48.840;9.314;2023-04-15T10:13:26;62.67;;;6.20;;
1308;SDS011;647;48.840;9.314;2023-04-15T10:15:57;66.13;;;5.77;;
1308;SDS011;647;48.840;9.314;2023-04-15T10:18:25;61.57;;;6.17;;
1308;SDS011;647;48.840;9.314;2023-04-15T10:20:53;63.10;;;5.80;;
1308;SDS011;647;48.840;9.314;2023-04-15T10:23:20;62.90;;;5.27;;
1308;SDS011;647;48.840;9.314;2023-04-15T10:25:48;60.30;;;5.20;;
1308;SDS011;647;48.840;9.314;2023-04-15T10:28:17;61.47;;;5.00;;
1308;SDS011;647;48.840;9.314;2023-04-15T10:30:48;65.47;;;5.90;;
1308;SDS011;647;48.840;9.314;2023-04-15T10:33:16;60.80;;;5.50;;
1308;SDS011;647;48.840;9.314;2023-04-15T10:35:44;62.20;;;5.20;;
1308;SDS011;647;48.840;9.314;2023-04-15T10:38:32;59.80;;;5.20;;
1308;SDS011;647;48.840;9.314;2023-04-15T10:41:11;61.03;;;4.67;;
1308;SDS011;647;48.840;9.314;2023-04-15T10:43:38;59.93;;;4.13;;
1308;SDS011;647;48.840;9.314;2023-04-15T10:46:07;60.57;;;4.93;;
1308;SDS011;647;48.840;9.314;2023-04-15T10:48:34;60.57;;;4.80;;
1308;SDS011;647;48.840;9.314;2023-04-15T10:51:01;59.67;;;4.80;;
1308;SDS011;647;48.840;9.314;2023-04-15T10:53:29;60.77;;;5.40;;
1308;SDS011;647;48.840;9.314;2023-04-15T10:55:56;59.50;;;4.83;;
1308;SDS011;647;48.840;9.314;2023-04-15T10:58:24;59.40;;;4.67;;
1308;SDS011;647;48.840;9.314;2023-04-15T11:00:52;64.50;;;5.50;;
1308;SDS011;647;48.840;9.314;2023-04-15T11:03:34;60.60;;;4.40;;
1308;SDS011;647;48.840;9.314;2023-04-15T11:06:02;59.50;;;4.40;;
1308;SDS011;647;48.840;9.314;2023-04-15T11:11:15;61.10;;;4.80;;
1308;SDS011;647;48.840;9.314;2023-04-15T11:13:46;61.10;;;5.70;;
1308;SDS011;647;48.840;9.314;2023-04-15T11:16:14;60.80;;;5.00;;
1308;SDS011;647;48.840;9.314;2023-04-15T11:18:42;59.77;;;4.60;;
1308;SDS011;647;48.840;9.314;2023-04-15T11:21:19;62.37;;;4.90;;
1308;SDS011;647;48.840;9.314;2023-04-15T11:23:50;60.57;;;5.07;;
1308;SDS011;647;48.840;9.314;2023-04-15T11:26:17;62.13;;;5.70;;
1308;SDS011;647;48.840;9.314;2023-04-15T11:28:44;60.10;;;5.37;;
1308;SDS011;647;48.840;9.314;2023-04-15T11:31:12;61.07;;;5.17;;
1308;SDS011;647;48.840;9.314;2023-04-15T11:33:53;62.40;;;6.40;;
1308;SDS011;647;48.840;9.314;2023-04-15T11:36:22;65.60;;;6.20;;
1308;SDS011;647;48.840;9.314;2023-04-15T11:38:50;62.73;;;6.43;;
1308;SDS011;647;48.840;9.314;2023-04-15T11:41:19;61.70;;;5.10;;
1308;SDS011;647;48.840;9.314;2023-04-15T11:43:46;60.00;;;5.50;;
1308;SDS011;647;48.840;9.314;2023-04-15T11:46:13;61.50;;;5.60;;
1308;SDS011;647;48.840;9.314;2023-04-15T11:48:41;60.80;;;6.40;;
1308;SDS011;647;48.840;9.314;2023-04-15T11:51:10;62.33;;;6.23;;
1308;SDS011;647;48.840;9.314;2023-04-15T11:53:39;61.00;;;6.07;;
1308;SDS011;647;48.840;9.314;2023-04-15T11:56:07;61.97;;;5.70;;
1308;SDS011;647;48.840;9.314;2023-04-15T11:58:35;60.23;;;5.20;;
1308;SDS011;647;48.840;9.314;2023-04-15T12:01:03;60.87;;;5.10;;
1308;SDS011;647;48.840;9.314;2023-04-15T12:03:35;60.60;;;4.97;;
1308;SDS011;647;48.840;9.314;2023-04-15T12:11:37;60.97;;;4.93;;
1308;SDS011;647;48.840;9.314;2023-04-15T12:14:06;59.27;;;4.97;;
1308;SDS011;647;48.840;9.314;2023-04-15T12:16:33;62.53;;;4.47;;
1308;SDS011;647;48.840;9.314;2023-04-15T12:19:03;60.53;;;4.90;;
1308;SDS011;647;48.840;9.314;2023-04-15T12:21:32;59.27;;;4.50;;
1308;SDS011;647;48.840;9.314;2023-04-15T12:24:00;60.73;;;4.97;;
1308;SDS011;647;48.840;9.314;2023-04-15T12:26:29;66.70;;;8.93;;
1308;SDS011;647;48.840;9.314;2023-04-15T12:29:00;61.77;;;6.63;;
1308;SDS011;647;48.840;9.314;2023-04-15T12:31:28;64.27;;;6.90;;
1308;SDS011;647;48.840;9.314;2023-04-15T12:33:55;62.57;;;6.80;;
1308;SDS011;647;48.840;9.314;2023-04-15T12:36:22;67.77;;;8.60;;
1308;SDS011;647;48.840;9.314;2023-04-15T12:38:49;62.97;;;6.30;;
1308;SDS011;647;48.840;9.314;2023-04-15T12:41:17;65.47;;;6.10;;
1308;SDS011;647;48.840;9.314;2023-04-15T12:43:44;61.13;;;5.30;;
1308;SDS011;647;48.840;9.314;2023-04-15T12:46:13;61.07;;;5.70;;
1308;SDS011;647;48.840;9.314;2023-04-15T12:48:40;60.60;;;5.10;;
1308;SDS011;647;48.840;9.314;2023-04-15T12:51:07;59.77;;;4.33;;
1308;SDS011;647;48.840;9.314;2023-04-15T12:53:35;62.13;;;4.90;;
1308;SDS011;647;48.840;9.314;2023-04-15T12:56:02;59.00;;;3.80;;
1308;SDS011;647;48.840;9.314;2023-04-15T12:58:30;59.83;;;4.10;;
1308;SDS011;647;48.840;9.314;2023-04-15T13:00:57;60.40;;;4.83;;
1308;SDS011;647;48.840;9.314;2023-04-15T13:03:26;59.57;;;4.53;;
1308;SDS011;647;48.840;9.314;2023-04-15T13:05:53;59.30;;;4.47;;
1308;SDS011;647;48.840;9.314;2023-04-15T13:08:21;61.00;;;4.43;;
1308;SDS011;647;48.840;9.314;2023-04-15T13:10:49;59.73;;;4.57;;
1308;SDS011;647;48.840;9.314;2023-04-15T13:13:16;62.80;;;5.17;;
1308;SDS011;647;48.840;9.314;2023-04-15T13:15:43;59.37;;;4.10;;
1308;SDS011;647;48.840;9.314;2023-04-15T13:18:10;62.97;;;3.90;;
1308;SDS011;647;48.840;9.314;2023-04-15T13:20:39;60.20;;;4.20;;
1308;SDS011;647;48.840;9.314;2023-04-15T13:23:06;59.90;;;3.93;;
1308;SDS011;647;48.840;9.314;2023-04-15T13:25:33;60.23;;;4.23;;
1308;SDS011;647;48.840;9.314;2023-04-15T13:28:00;58.43;;;3.80;;
1308;SDS011;647;48.840;9.314;2023-04-15T13:30:27;61.60;;;3.57;;
1308;SDS011;647;48.840;9.314;2023-04-15T13:32:55;58.97;;;4.37;;
1308;SDS011;647;48.840;9.314;2023-04-15T13:35:22;58.47;;;3.70;;
1308;SDS011;647;48.840;9.314;2023-04-15T13:37:50;59.40;;;3.57;;
1308;SDS011;647;48.840;9.314;2023-04-15T13:40:20;58.33;;;3.37;;
1308;SDS011;647;48.840;9.314;2023-04-15T13:42:47;60.40;;;4.07;;
1308;SDS011;647;48.840;9.314;2023-04-15T13:45:14;58.87;;;3.80;;
1308;SDS011;647;48.840;9.314;2023-04-15T13:47:41;58.77;;;3.43;;
1308;SDS011;647;48.840;9.314;2023-04-15T13:50:09;61.73;;;3.10;;
1308;SDS011;647;48.840;9.314;2023-04-15T13:52:36;59.40;;;3.17;;
1308;SDS011;647;48.840;9.314;2023-04-15T13:55:05;58.97;;;3.20;;
1308;SDS011;647;48.840;9.314;2023-04-15T13:57:33;57.97;;;3.00;;
1308;SDS011;647;48.840;9.314;2023-04-15T14:00:00;57.87;;;2.90;;
1308;SDS011;647;48.840;9.314;2023-04-15T14:02:28;58.60;;;3.10;;
1308;SDS011;647;48.840;9.314;2023-04-15T14:04:55;58.20;;;2.80;;
1308;SDS011;647;48.840;9.314;2023-04-15T14:07:22;58.17;;;3.33;;
1308;SDS011;647;48.840;9.314;2023-04-15T14:09:50;58.90;;;2.73;;
1308;SDS011;647;48.840;9.314;2023-04-15T14:12:18;58.73;;;3.10;;
1308;SDS011;647;48.840;9.314;2023-04-15T14:14:45;59.53;;;3.30;;
1308;SDS011;647;48.840;9.314;2023-04-15T14:17:12;57.70;;;3.00;;
1308;SDS011;647;48.840;9.314;2023-04-15T14:19:40;58.60;;;3.17;;
1308;SDS011;647;48.840;9.314;2023-04-15T14:22:07;58.30;;;3.03;;
1308;SDS011;647;48.840;9.314;2023-04-15T14:24:34;58.87;;;3.47;;
1308;SDS011;647;48.840;9.314;2023-04-15T14:27:01;57.90;;;2.87;;
1308;SDS011;647;48.840;9.314;2023-04-15T14:29:30;57.33;;;2.90;;
1308;SDS011;647;48.840;9.314;2023-04-15T14:31:57;57.57;;;2.97;;
1308;SDS011;647;48.840;9.314;2023-04-15T14:34:24;60.70;;;3.70;;
1308;SDS011;647;48.840;9.314;2023-04-15T14:36:52;59.30;;;3.50;;
1308;SDS011;647;48.840;9.314;2023-04-15T14:39:19;57.80;;;2.93;;
1308;SDS011;647;48.840;9.314;2023-04-15T14:41:46;57.70;;;3.00;;
1308;SDS011;647;48.840;9.314;2023-04-15T14:44:13;58.03;;;3.10;;
1308;SDS011;647;48.840;9.314;2023-04-15T14:46:41;59.40;;;3.30;;
1308;SDS011;647;48.840;9.314;2023-04-15T14:49:08;58.30;;;3.50;;
1308;SDS011;647;48.840;9.314;2023-04-15T14:51:35;58.60;;;3.63;;
1308;SDS011;647;48.840;9.314;2023-04-15T14:54:03;59.10;;;3.20;;
1308;SDS011;647;48.840;9.314;2023-04-15T14:56:30;58.47;;;3.57;;
1308;SDS011;647;48.840;9.314;2023-04-15T14:58:57;58.77;;;3.00;;
1308;SDS011;647;48.840;9.314;2023-04-15T15:01:24;57.67;;;3.10;;
1308;SDS011;647;48.840;9.314;2023-04-15T15:03:52;58.63;;;3.83;;
1308;SDS011;647;48.840;9.314;2023-04-15T15:06:20;58.17;;;3.37;;
1308;SDS011;647;48.840;9.314;2023-04-15T15:08:47;61.90;;;3.87;;
1308;SDS011;647;48.840;9.314;2023-04-15T15:11:14;59.40;;;3.23;;
1308;SDS011;647;48.840;9.314;2023-04-15T15:13:42;58.97;;;3.30;;
1308;SDS011;647;48.840;9.314;2023-04-15T15:16:09;58.87;;;3.13;;
1308;SDS011;647;48.840;9.314;2023-04-15T15:18:36;57.80;;;2.80;;
1308;SDS011;647;48.840;9.314;2023-04-15T15:21:04;62.17;;;3.50;;
1308;SDS011;647;48.840;9.314;2023-04-15T15:23:31;58.83;;;3.50;;
1308;SDS011;647;48.840;9.314;2023-04-15T15:25:59;58.10;;;3.07;;
1308;SDS011;647;48.840;9.314;2023-04-15T15:28:26;59.10;;;3.07;;
1308;SDS011;647;48.840;9.314;2023-04-15T15:30:53;58.17;;;3.53;;
1308;SDS011;647;48.840;9.314;2023-04-15T15:33:20;59.47;;;3.73;;
1308;SDS011;647;48.840;9.314;2023-04-15T15:35:47;58.80;;;3.60;;
1308;SDS011;647;48.840;9.314;2023-04-15T15:38:16;61.60;;;3.10;;
1308;SDS011;647;48.840;9.314;2023-04-15T15:40:43;58.77;;;3.50;;
1308;SDS011;647;48.840;9.314;2023-04-15T15:43:10;63.37;;;4.00;;